createdAt,value
2023-01-23T00:01:33.493Z,100.00
2023-01-23T00:04:00.955Z,100.00
2023-01-23T00:06:28.845Z,100.00
2023-01-23T00:08:57.000Z,100.00
2023-01-23T00:11:27.684Z,100.00
2023-01-23T00:13:54.913Z,100.00
2023-01-23T00:16:24.660Z,100.00
2023-01-23T00:18:52.094Z,100.00
2023-01-23T00:21:23.439Z,100.00
2023-01-23T00:23:58.289Z,100.00
2023-01-23T00:26:29.270Z,100.00
2023-01-23T00:28:56.916Z,100.00
2023-01-23T00:31:28.800Z,100.00
2023-01-23T00:34:00.101Z,100.00
2023-01-23T00:36:36.125Z,100.00
2023-01-23T00:39:06.909Z,100.00
2023-01-23T00:41:34.576Z,100.00
2023-01-23T00:44:01.440Z,100.00
2023-01-23T00:46:28.347Z,100.00
2023-01-23T00:48:55.482Z,100.00
2023-01-23T00:51:22.667Z,100.00
2023-01-23T00:53:49.569Z,100.00
2023-01-23T00:56:16.802Z,100.00
2023-01-23T00:58:45.185Z,100.00
2023-01-23T01:01:14.055Z,100.00
2023-01-23T01:03:40.972Z,100.00
2023-01-23T01:06:08.602Z,100.00
2023-01-23T01:08:35.476Z,100.00
2023-01-23T01:11:02.410Z,100.00
2023-01-23T01:13:29.285Z,100.00
2023-01-23T01:15:56.962Z,100.00
2023-01-23T01:18:24.065Z,100.00
2023-01-23T01:20:51.589Z,100.00
2023-01-23T01:23:19.463Z,100.00
2023-01-23T01:25:47.422Z,100.00
2023-01-23T01:28:14.535Z,100.00
2023-01-23T01:30:41.721Z,100.00
2023-01-23T01:33:09.293Z,100.00
2023-01-23T01:35:36.085Z,100.00
2023-01-23T01:38:03.333Z,100.00
2023-01-23T01:40:34.400Z,100.00
2023-01-23T01:43:06.283Z,100.00
2023-01-23T01:46:07.110Z,100.00
2023-01-23T01:48:46.838Z,100.00
2023-01-23T01:51:32.743Z,100.00
2023-01-23T01:54:05.792Z,100.00
2023-01-23T01:56:40.211Z,100.00
2023-01-23T01:59:08.979Z,100.00
2023-01-23T02:01:36.244Z,100.00
2023-01-23T02:04:03.479Z,100.00
2023-01-23T02:06:30.378Z,100.00
2023-01-23T02:09:12.193Z,100.00
2023-01-23T02:11:39.214Z,100.00
2023-01-23T02:14:06.865Z,100.00
2023-01-23T02:16:41.226Z,100.00
2023-01-23T02:19:40.057Z,100.00
2023-01-23T02:22:40.076Z,100.00
2023-01-23T02:25:27.235Z,100.00
2023-01-23T02:27:54.508Z,100.00
2023-01-23T02:30:22.188Z,100.00
2023-01-23T02:32:49.228Z,100.00
2023-01-23T02:35:26.519Z,100.00
2023-01-23T02:37:56.603Z,100.00
2023-01-23T02:40:38.743Z,100.00
2023-01-23T02:43:09.732Z,100.00
2023-01-23T02:45:36.953Z,100.00
2023-01-23T02:48:06.198Z,100.00
2023-01-23T02:50:32.958Z,100.00
2023-01-23T02:52:59.978Z,100.00
2023-01-23T02:55:30.049Z,100.00
2023-01-23T02:58:15.887Z,100.00
2023-01-23T03:00:43.958Z,100.00
2023-01-23T03:03:10.817Z,100.00
2023-01-23T03:05:38.506Z,100.00
2023-01-23T03:08:05.740Z,100.00
2023-01-23T03:10:32.578Z,100.00
2023-01-23T03:13:03.482Z,100.00
2023-01-23T03:15:31.739Z,100.00
2023-01-23T03:17:58.507Z,100.00
2023-01-23T03:20:27.005Z,100.00
2023-01-23T03:22:54.775Z,100.00
2023-01-23T03:25:21.974Z,100.00
2023-01-23T03:27:49.488Z,100.00
2023-01-23T03:30:17.297Z,100.00
2023-01-23T03:32:46.068Z,100.00
2023-01-23T03:35:14.526Z,100.00
2023-01-23T03:37:41.685Z,100.00
2023-01-23T03:40:35.627Z,100.00
2023-01-23T03:43:02.798Z,100.00
2023-01-23T03:45:29.781Z,100.00
2023-01-23T03:47:56.612Z,100.00
2023-01-23T03:50:23.647Z,100.00
2023-01-23T03:52:50.393Z,100.00
2023-01-23T03:55:17.537Z,100.00
2023-01-23T03:57:44.315Z,100.00
2023-01-23T04:00:13.879Z,100.00
2023-01-23T04:02:41.452Z,100.00
2023-01-23T04:05:08.711Z,100.00
2023-01-23T04:07:35.485Z,100.00
2023-01-23T04:10:02.268Z,100.00
2023-01-23T04:12:29.317Z,100.00
2023-01-23T04:14:56.253Z,100.00
2023-01-23T04:17:23.042Z,100.00
2023-01-23T04:19:49.851Z,100.00
2023-01-23T04:22:16.638Z,100.00
2023-01-23T04:24:43.403Z,100.00
2023-01-23T04:27:10.466Z,100.00
2023-01-23T04:29:37.241Z,100.00
2023-01-23T04:32:05.319Z,100.00
2023-01-23T04:34:32.244Z,100.00
2023-01-23T04:36:59.052Z,100.00
2023-01-23T04:39:25.846Z,100.00
2023-01-23T04:41:52.613Z,100.00
2023-01-23T04:44:22.265Z,100.00
2023-01-23T04:46:54.366Z,100.00
2023-01-23T04:49:23.064Z,100.00
2023-01-23T04:51:51.988Z,100.00
2023-01-23T04:54:20.322Z,100.00
2023-01-23T04:56:48.161Z,100.00
2023-01-23T04:59:16.831Z,100.00
2023-01-23T05:01:44.630Z,100.00
2023-01-23T05:04:11.532Z,100.00
2023-01-23T05:06:38.412Z,100.00
2023-01-23T05:09:05.739Z,100.00
2023-01-23T05:11:32.760Z,100.00
2023-01-23T05:13:59.660Z,100.00
2023-01-23T05:16:26.413Z,100.00
2023-01-23T05:18:53.210Z,100.00
2023-01-23T05:21:19.979Z,100.00
2023-01-23T05:23:46.758Z,100.00
2023-01-23T05:26:13.898Z,100.00
2023-01-23T05:28:40.677Z,100.00
2023-01-23T05:31:08.019Z,100.00
2023-01-23T05:33:35.187Z,100.00
2023-01-23T05:36:02.634Z,100.00
2023-01-23T05:38:29.864Z,100.00
2023-01-23T05:40:56.935Z,100.00
2023-01-23T05:43:23.758Z,100.00
2023-01-23T05:45:50.702Z,100.00
2023-01-23T05:48:17.516Z,100.00
2023-01-23T05:50:44.335Z,100.00
2023-01-23T05:53:11.150Z,100.00
2023-01-23T05:55:39.233Z,100.00
2023-01-23T05:58:06.406Z,100.00
2023-01-23T06:00:33.313Z,100.00
2023-01-23T06:03:00.105Z,100.00
2023-01-23T06:05:27.249Z,100.00
2023-01-23T06:07:54.012Z,100.00
2023-01-23T06:10:21.318Z,100.00
2023-01-23T06:12:48.281Z,100.00
2023-01-23T06:15:15.076Z,100.00
2023-01-23T06:17:42.077Z,100.00
2023-01-23T06:20:11.008Z,100.00
2023-01-23T06:22:37.961Z,100.00
2023-01-23T06:25:05.289Z,100.00
2023-01-23T06:27:32.165Z,100.00
2023-01-23T06:29:58.913Z,100.00
2023-01-23T06:32:25.839Z,100.00
2023-01-23T06:34:52.614Z,100.00
2023-01-23T06:37:19.368Z,100.00
2023-01-23T06:39:46.191Z,100.00
2023-01-23T06:42:13.250Z,100.00
2023-01-23T06:44:40.069Z,100.00
2023-01-23T06:47:06.839Z,100.00
2023-01-23T06:49:33.782Z,100.00
2023-01-23T06:52:00.696Z,100.00
2023-01-23T06:54:27.577Z,100.00
2023-01-23T06:56:54.642Z,100.00
2023-01-23T06:59:21.424Z,100.00
2023-01-23T07:01:48.279Z,100.00
2023-01-23T07:04:15.121Z,100.00
2023-01-23T07:06:42.030Z,100.00
2023-01-23T07:09:08.949Z,100.00
2023-01-23T07:11:37.460Z,100.00
2023-01-23T07:14:04.208Z,100.00
2023-01-23T07:16:31.066Z,100.00
2023-01-23T07:18:59.198Z,100.00
2023-01-23T07:21:26.241Z,100.00
2023-01-23T07:23:53.086Z,100.00
2023-01-23T07:26:19.950Z,100.00
2023-01-23T07:28:46.892Z,100.00
2023-01-23T07:31:14.026Z,100.00
2023-01-23T07:33:41.062Z,100.00
2023-01-23T07:36:09.258Z,100.00
2023-01-23T07:38:36.382Z,100.00
2023-01-23T07:41:03.131Z,100.00
2023-01-23T07:43:29.835Z,100.00
2023-01-23T07:46:02.901Z,100.00
2023-01-23T07:48:30.288Z,100.00
2023-01-23T07:50:57.181Z,100.00
2023-01-23T07:53:23.987Z,100.00
2023-01-23T07:55:50.898Z,100.00
2023-01-23T07:58:17.792Z,100.00
2023-01-23T08:00:45.533Z,100.00
2023-01-23T08:03:12.418Z,100.00
2023-01-23T08:05:39.168Z,100.00
2023-01-23T08:08:13.412Z,100.00
2023-01-23T08:10:41.635Z,100.00
2023-01-23T08:13:08.846Z,100.00
2023-01-23T08:15:38.987Z,100.00
2023-01-23T08:18:05.935Z,100.00
2023-01-23T08:20:32.741Z,100.00
2023-01-23T08:23:00.854Z,100.00
2023-01-23T08:25:27.820Z,100.00
2023-01-23T08:27:54.579Z,100.00
2023-01-23T08:30:21.972Z,100.00
2023-01-23T08:32:49.232Z,100.00
2023-01-23T08:35:16.196Z,100.00
2023-01-23T08:37:43.151Z,100.00
2023-01-23T08:40:11.015Z,100.00
2023-01-23T08:42:37.747Z,100.00
2023-01-23T08:45:05.289Z,100.00
2023-01-23T08:47:36.755Z,100.00
2023-01-23T08:50:05.777Z,100.00
2023-01-23T08:52:34.865Z,100.00
2023-01-23T08:55:01.761Z,100.00
2023-01-23T08:57:28.776Z,100.00
2023-01-23T08:59:55.551Z,100.00
2023-01-23T09:02:22.741Z,100.00
2023-01-23T09:04:50.805Z,100.00
2023-01-23T09:07:17.661Z,100.00
2023-01-23T09:09:44.449Z,100.00
2023-01-23T09:12:11.243Z,100.00
2023-01-23T09:14:38.120Z,100.00
2023-01-23T09:17:06.190Z,100.00
2023-01-23T09:19:33.303Z,100.00
2023-01-23T09:22:00.503Z,100.00
2023-01-23T09:24:27.374Z,100.00
2023-01-23T09:26:54.162Z,100.00
2023-01-23T09:29:20.991Z,100.00
2023-01-23T09:31:47.828Z,100.00
2023-01-23T09:34:17.046Z,100.00
2023-01-23T09:36:44.250Z,100.00
2023-01-23T09:39:12.571Z,100.00
2023-01-23T09:41:41.401Z,100.00
2023-01-23T09:44:49.777Z,100.00
2023-01-23T09:47:34.861Z,100.00
2023-01-23T09:50:08.889Z,100.00
2023-01-23T09:53:05.028Z,100.00
2023-01-23T09:55:49.796Z,100.00
2023-01-23T09:58:29.019Z,100.00
2023-01-23T10:00:55.978Z,100.00
2023-01-23T10:03:29.053Z,100.00
2023-01-23T10:06:25.020Z,100.00
2023-01-23T10:09:37.030Z,100.00
2023-01-23T10:12:30.100Z,100.00
2023-01-23T10:15:34.368Z,100.00
2023-01-23T10:18:54.486Z,100.00
2023-01-23T10:21:34.583Z,100.00
2023-01-23T10:24:23.737Z,100.00
2023-01-23T10:26:50.939Z,100.00
2023-01-23T10:29:38.325Z,100.00
2023-01-23T10:32:22.573Z,100.00
2023-01-23T10:34:56.348Z,100.00
2023-01-23T10:37:51.328Z,100.00
2023-01-23T10:40:40.604Z,100.00
2023-01-23T10:43:21.083Z,100.00
2023-01-23T10:45:50.048Z,100.00
2023-01-23T10:48:36.323Z,100.00
2023-01-23T10:51:04.483Z,100.00
2023-01-23T10:53:31.320Z,100.00
2023-01-23T10:56:00.984Z,100.00
2023-01-23T10:58:38.857Z,99.87
2023-01-23T11:01:18.863Z,99.84
2023-01-23T11:03:46.263Z,99.58
2023-01-23T11:06:19.247Z,99.27
2023-01-23T11:09:04.641Z,99.33
2023-01-23T11:11:33.413Z,99.21
2023-01-23T11:14:16.996Z,99.03
2023-01-23T11:16:44.337Z,99.07
2023-01-23T11:19:19.842Z,99.19
2023-01-23T11:21:59.825Z,99.01
2023-01-23T11:24:41.143Z,98.62
2023-01-23T11:27:20.449Z,97.70
2023-01-23T11:30:09.661Z,97.56
2023-01-23T11:33:09.357Z,97.51
2023-01-23T11:35:54.097Z,97.53
2023-01-23T11:38:30.838Z,97.29
2023-01-23T11:40:58.365Z,95.86
2023-01-23T11:43:25.261Z,96.61
2023-01-23T11:46:50.305Z,96.49
2023-01-23T11:49:56.213Z,95.73
2023-01-23T11:52:28.851Z,95.36
2023-01-23T11:55:29.740Z,95.56
2023-01-23T11:58:39.704Z,95.31
2023-01-23T12:05:00.834Z,94.31
2023-01-23T12:07:27.974Z,94.10
2023-01-23T12:10:26.709Z,94.41
2023-01-23T12:13:15.433Z,93.85
2023-01-23T12:16:14.167Z,94.17
2023-01-23T12:19:23.065Z,94.28
2023-01-23T12:22:15.354Z,94.03
2023-01-23T12:25:00.677Z,93.19
2023-01-23T12:27:36.360Z,93.67
2023-01-23T12:30:29.345Z,93.32
2023-01-23T12:33:27.663Z,93.18
2023-01-23T12:36:44.208Z,93.66
2023-01-23T12:39:43.466Z,92.93
2023-01-23T12:42:27.354Z,92.64
2023-01-23T12:45:07.072Z,91.98
2023-01-23T12:48:07.226Z,92.23
2023-01-23T12:50:56.931Z,91.83
2023-01-23T12:53:24.217Z,92.03
2023-01-23T12:56:00.002Z,90.72
2023-01-23T12:58:31.693Z,90.86
2023-01-23T13:01:39.318Z,90.05
2023-01-23T13:04:51.539Z,89.77
2023-01-23T13:07:41.313Z,89.55
2023-01-23T13:10:52.345Z,89.22
2023-01-23T13:13:20.767Z,88.13
2023-01-23T13:16:15.509Z,88.87
2023-01-23T13:19:15.930Z,88.15
2023-01-23T13:22:29.077Z,87.43
2023-01-23T13:25:14.426Z,88.30
2023-01-23T13:27:55.843Z,87.84
2023-01-23T13:30:42.909Z,86.69
2023-01-23T13:33:15.760Z,87.50
2023-01-23T13:35:44.747Z,86.85
2023-01-23T13:38:29.558Z,86.80
2023-01-23T13:41:05.375Z,87.07
2023-01-23T13:43:50.168Z,87.34
2023-01-23T14:21:52.442Z,88.12
2023-01-23T14:24:26.698Z,88.39
2023-01-23T14:27:07.535Z,88.41
2023-01-23T14:29:35.801Z,88.53
2023-01-23T14:32:02.983Z,88.70
2023-01-23T14:34:29.779Z,88.98
2023-01-23T14:37:12.582Z,89.12
2023-01-23T14:39:42.331Z,89.13
2023-01-23T14:42:16.490Z,89.34
2023-01-23T14:44:47.625Z,89.44
2023-01-23T14:47:25.923Z,89.57
2023-01-23T14:49:53.925Z,89.66
2023-01-23T14:52:29.056Z,89.66
2023-01-23T14:55:07.656Z,89.82
2023-01-23T14:57:36.399Z,89.52
2023-01-23T15:00:04.387Z,89.33
2023-01-23T15:02:36.410Z,89.24
2023-01-23T15:05:12.916Z,88.55
2023-01-23T15:07:47.995Z,88.96
2023-01-23T15:10:17.694Z,88.57
2023-01-23T15:13:03.463Z,88.54
2023-01-23T15:15:33.441Z,88.52
2023-01-23T15:18:01.769Z,88.75
2023-01-23T15:20:41.245Z,88.75
2023-01-23T15:23:20.839Z,88.76
2023-01-23T15:25:54.620Z,89.08
2023-01-23T15:28:55.885Z,89.34
2023-01-23T15:31:43.131Z,89.42
2023-01-23T15:34:18.980Z,89.44
2023-01-23T15:37:00.711Z,89.78
2023-01-23T15:39:49.887Z,89.87
2023-01-23T15:42:16.620Z,89.95
2023-01-23T15:44:44.399Z,90.00
2023-01-23T15:47:11.556Z,89.97
2023-01-23T15:49:40.734Z,90.22
2023-01-23T15:52:44.416Z,90.38
2023-01-23T15:55:12.167Z,90.35
2023-01-23T15:57:39.352Z,90.45
2023-01-23T16:00:28.411Z,90.40
2023-01-23T16:02:58.121Z,90.55
2023-01-23T16:05:33.569Z,90.55
2023-01-23T16:08:04.883Z,90.74
2023-01-23T16:10:37.557Z,90.76
2023-01-23T16:13:05.157Z,90.93
2023-01-23T16:15:35.255Z,90.87
2023-01-23T16:18:07.337Z,91.30
2023-01-23T16:20:41.564Z,91.48
2023-01-23T16:23:22.992Z,91.34
2023-01-23T16:25:50.527Z,91.83
2023-01-23T16:28:23.947Z,91.81
2023-01-23T16:30:52.139Z,91.74
2023-01-23T16:33:20.495Z,92.02
2023-01-23T16:35:49.696Z,92.08
2023-01-23T16:38:26.646Z,92.04
2023-01-23T16:40:55.052Z,92.27
2023-01-23T16:43:22.774Z,92.47
2023-01-23T16:45:49.652Z,92.77
2023-01-23T16:48:26.330Z,92.90
2023-01-23T16:51:00.454Z,92.96
2023-01-23T16:53:37.839Z,92.96
2023-01-23T16:56:06.570Z,93.44
2023-01-23T16:58:40.117Z,93.11
2023-01-23T17:01:22.569Z,93.37
2023-01-23T17:04:00.308Z,93.31
2023-01-23T17:06:27.365Z,93.55
2023-01-23T17:08:56.229Z,93.63
2023-01-23T17:11:29.016Z,93.73
2023-01-23T17:14:03.688Z,93.79
2023-01-23T17:16:31.093Z,94.19
2023-01-23T17:19:01.407Z,94.17
2023-01-23T17:21:34.263Z,95.18
2023-01-23T17:24:01.088Z,94.84
2023-01-23T17:26:27.919Z,94.96
2023-01-23T17:28:55.261Z,95.29
2023-01-23T17:31:26.397Z,94.86
2023-01-23T17:33:53.915Z,95.02
2023-01-23T17:36:20.678Z,94.89
2023-01-23T17:38:47.737Z,94.94
2023-01-23T17:41:16.611Z,95.58
2023-01-23T17:43:44.803Z,95.41
2023-01-23T17:46:26.968Z,95.39
2023-01-23T17:48:55.845Z,95.48
2023-01-23T17:51:24.106Z,95.62
2023-01-23T17:53:51.647Z,95.76
2023-01-23T17:56:18.906Z,95.70
2023-01-23T17:58:46.117Z,95.72
2023-01-23T18:01:23.444Z,95.69
2023-01-23T18:03:51.672Z,95.67
2023-01-23T18:06:19.557Z,95.88
2023-01-23T18:08:46.487Z,96.08
2023-01-23T18:11:20.647Z,96.08
2023-01-23T18:14:06.237Z,96.04
2023-01-23T18:16:45.650Z,96.13
2023-01-23T18:19:20.213Z,95.98
2023-01-23T18:21:50.951Z,96.19
2023-01-23T18:24:30.615Z,96.05
2023-01-23T18:27:00.408Z,96.22
2023-01-23T18:30:17.026Z,95.98
2023-01-23T18:32:55.988Z,95.89
2023-01-23T18:36:07.402Z,96.16
2023-01-23T18:39:23.910Z,96.23
2023-01-23T18:42:17.323Z,96.48
2023-01-23T18:44:55.522Z,96.68
2023-01-23T18:47:22.624Z,96.79
2023-01-23T18:49:49.632Z,96.81
2023-01-23T18:52:25.424Z,97.39
2023-01-23T18:54:58.783Z,97.21
2023-01-23T18:57:56.543Z,97.16
2023-01-23T19:00:34.341Z,97.10
2023-01-23T19:03:16.657Z,97.07
2023-01-23T19:05:45.512Z,96.94
2023-01-23T19:08:30.822Z,97.07
2023-01-23T19:11:06.696Z,97.31
2023-01-23T19:14:16.585Z,97.21
2023-01-23T19:17:08.674Z,97.37
2023-01-23T19:19:55.601Z,97.73
2023-01-23T19:22:25.131Z,97.84
2023-01-23T19:24:52.293Z,97.80
2023-01-23T19:27:23.685Z,97.87
2023-01-23T19:29:50.732Z,98.11
2023-01-23T19:32:18.012Z,98.09
2023-01-23T19:34:44.796Z,97.80
2023-01-23T19:37:11.804Z,97.73
2023-01-23T19:39:38.701Z,98.07
2023-01-23T19:42:05.521Z,98.07
2023-01-23T19:44:33.289Z,98.08
2023-01-23T19:47:00.205Z,98.85
2023-01-23T19:49:27.429Z,98.64
2023-01-23T19:51:54.209Z,98.64
2023-01-23T19:54:23.975Z,98.17
2023-01-23T19:56:51.369Z,98.77
2023-01-23T19:59:18.283Z,98.69
2023-01-23T20:01:48.629Z,98.62
2023-01-23T20:04:20.811Z,98.73
2023-01-23T20:06:54.469Z,99.09
2023-01-23T20:09:22.056Z,98.82
2023-01-23T20:11:49.489Z,98.71
2023-01-23T20:14:16.359Z,98.88
2023-01-23T20:16:43.668Z,98.90
2023-01-23T20:19:15.723Z,99.18
2023-01-23T20:21:43.082Z,99.25
2023-01-23T20:24:10.302Z,99.01
2023-01-23T20:26:38.284Z,98.99
2023-01-23T20:29:05.532Z,98.72
2023-01-23T20:31:33.136Z,98.90
2023-01-23T20:34:00.161Z,99.18
2023-01-23T20:36:27.727Z,99.32
2023-01-23T20:38:56.496Z,99.12
2023-01-23T20:41:23.450Z,99.19
2023-01-23T20:43:50.492Z,99.37
2023-01-23T20:46:19.464Z,99.41
2023-01-23T20:48:46.484Z,99.31
2023-01-23T20:51:15.937Z,99.26
2023-01-23T20:53:43.614Z,99.21
2023-01-23T20:56:11.472Z,99.27
2023-01-23T20:59:00.705Z,99.29
2023-01-23T21:01:57.648Z,99.54
2023-01-23T21:04:29.111Z,99.81
2023-01-23T21:06:56.794Z,99.49
2023-01-23T21:09:24.161Z,99.24
2023-01-23T21:11:52.079Z,99.53
2023-01-23T21:14:19.957Z,99.54
2023-01-23T21:16:47.973Z,99.19
2023-01-23T21:19:16.189Z,99.73
2023-01-23T21:21:43.529Z,99.63
2023-01-23T21:24:10.631Z,99.62
2023-01-23T21:26:37.692Z,99.56
2023-01-23T21:29:05.585Z,99.96
2023-01-23T21:31:35.838Z,99.75
2023-01-23T21:34:06.467Z,100.00
2023-01-23T21:36:33.284Z,100.00
2023-01-23T21:39:00.147Z,100.00
2023-01-23T21:41:27.091Z,100.00
2023-01-23T21:43:53.914Z,100.00
2023-01-23T21:46:20.803Z,100.00
2023-01-23T21:48:47.551Z,100.00
2023-01-23T21:51:19.110Z,100.00
2023-01-23T21:53:48.246Z,100.00
2023-01-23T21:56:21.061Z,100.00
2023-01-23T21:58:48.899Z,100.00
2023-01-23T22:01:32.670Z,100.00
2023-01-23T22:04:15.333Z,100.00
2023-01-23T22:06:44.213Z,100.00
2023-01-23T22:09:16.791Z,100.00
2023-01-23T22:11:44.674Z,100.00
2023-01-23T22:14:11.564Z,100.00
2023-01-23T22:16:50.311Z,100.00
2023-01-23T22:19:24.663Z,100.00
2023-01-23T22:21:54.223Z,100.00
2023-01-23T22:24:21.259Z,100.00
2023-01-23T22:26:48.125Z,100.00
2023-01-23T22:29:15.229Z,100.00
2023-01-23T22:31:42.888Z,100.00
2023-01-23T22:34:09.860Z,100.00
2023-01-23T22:36:36.785Z,99.93
2023-01-23T22:39:04.329Z,100.00
2023-01-23T22:41:31.343Z,100.00
2023-01-23T22:43:59.497Z,99.86
2023-01-23T22:46:27.566Z,100.00
2023-01-23T22:48:54.682Z,100.00
2023-01-23T22:51:27.657Z,100.00
2023-01-23T22:53:56.396Z,100.00
2023-01-23T22:56:24.755Z,100.00
2023-01-23T22:58:54.509Z,100.00
2023-01-23T23:01:23.572Z,100.00
2023-01-23T23:03:50.638Z,100.00
2023-01-23T23:06:18.188Z,100.00
2023-01-23T23:08:47.622Z,100.00
2023-01-23T23:11:27.208Z,100.00
2023-01-23T23:13:56.628Z,100.00
2023-01-23T23:16:27.987Z,100.00
2023-01-23T23:18:57.833Z,100.00
2023-01-23T23:21:31.772Z,100.00
2023-01-23T23:24:00.718Z,100.00
2023-01-23T23:26:31.476Z,100.00
2023-01-23T23:29:01.122Z,100.00
2023-01-23T23:31:28.238Z,100.00
2023-01-23T23:33:55.513Z,100.00
2023-01-23T23:36:22.653Z,100.00
2023-01-23T23:38:49.656Z,100.00
2023-01-23T23:41:18.217Z,100.00
2023-01-23T23:43:45.348Z,100.00
2023-01-23T23:46:14.091Z,100.00
2023-01-23T23:48:41.206Z,100.00
2023-01-23T23:51:11.521Z,100.00
2023-01-23T23:53:39.105Z,100.00
2023-01-23T23:56:07.200Z,100.00
2023-01-23T23:58:37.503Z,100.00
